createdAt,value
2022-11-05T00:00:06.668Z,100743.09
2022-11-05T00:03:12.917Z,100743.88
2022-11-05T00:06:20.341Z,100738.25
2022-11-05T00:09:28.313Z,100743.66
2022-11-05T00:12:34.084Z,100753.81
2022-11-05T00:15:40.204Z,100753.56
2022-11-05T00:18:27.505Z,100756.81
2022-11-05T00:21:33.254Z,100766.44
2022-11-05T00:24:39.384Z,100767.81
2022-11-05T00:27:26.738Z,100781.31
2022-11-05T00:30:18.498Z,100777.28
2022-11-05T00:33:05.779Z,100779.75
2022-11-05T00:35:53.126Z,100775.94
2022-11-05T00:38:40.484Z,100775.47
2022-11-05T00:41:27.733Z,100780.59
2022-11-05T00:44:33.683Z,100787.56
2022-11-05T00:47:39.744Z,100791.59
2022-11-05T00:50:27.499Z,100800.44
2022-11-05T00:53:14.822Z,100798.84
2022-11-05T00:56:02.660Z,100799.13
2022-11-05T00:58:49.970Z,100808.25
2022-11-05T01:01:37.347Z,100810.69
2022-11-05T01:04:24.823Z,100817.38
2022-11-05T01:07:12.075Z,100814.44
2022-11-05T01:09:59.381Z,100812.34
2022-11-05T01:12:46.814Z,100807.50
2022-11-05T01:15:35.788Z,100810.19
2022-11-05T01:18:24.295Z,100818.00
2022-11-05T01:21:14.178Z,100814.50
2022-11-05T01:24:02.375Z,100820.94
2022-11-05T01:26:49.703Z,100818.31
2022-11-05T01:29:37.304Z,100825.31
2022-11-05T01:32:24.603Z,100816.19
2022-11-05T01:35:14.615Z,100812.16
2022-11-05T01:38:01.941Z,100816.78
2022-11-05T01:40:49.449Z,100821.88
2022-11-05T01:43:50.241Z,100818.41
2022-11-05T01:46:45.349Z,100821.06
2022-11-05T01:49:34.576Z,100822.41
2022-11-05T01:52:23.731Z,100815.47
2022-11-05T01:55:13.489Z,100821.91
2022-11-05T01:58:02.264Z,100825.41
2022-11-05T02:00:49.707Z,100824.03
2022-11-05T02:03:37.689Z,100828.06
2022-11-05T02:06:25.962Z,100822.72
2022-11-05T02:09:21.578Z,100832.13
2022-11-05T02:12:09.859Z,100828.66
2022-11-05T02:14:58.002Z,100835.59
2022-11-05T02:17:48.284Z,100827.03
2022-11-05T02:20:41.801Z,100834.56
2022-11-05T02:23:41.347Z,100838.88
2022-11-05T02:27:01.772Z,100837.56
2022-11-05T02:30:28.048Z,100841.56
2022-11-05T02:33:47.317Z,100844.84
2022-11-05T02:36:50.238Z,100844.28
2022-11-05T02:39:56.208Z,100847.50
2022-11-05T02:43:15.179Z,100845.38
2022-11-05T02:46:14.829Z,100845.91
2022-11-05T02:49:29.947Z,100842.16
2022-11-05T02:52:43.405Z,100843.22
2022-11-05T02:55:40.097Z,100845.13
2022-11-05T02:58:28.917Z,100842.16
2022-11-05T03:01:16.516Z,100838.97
2022-11-05T03:04:08.202Z,100848.09
2022-11-05T03:07:20.541Z,100851.06
2022-11-05T03:10:27.007Z,100851.31
2022-11-05T03:13:21.417Z,100845.44
2022-11-05T03:16:47.707Z,100848.13
2022-11-05T03:19:46.533Z,100846.75
2022-11-05T03:22:41.446Z,100850.78
2022-11-05T03:25:31.155Z,100845.97
2022-11-05T03:28:22.231Z,100851.34
2022-11-05T03:31:13.322Z,100857.22
2022-11-05T03:34:01.945Z,100851.34
2022-11-05T03:36:53.447Z,100852.16
2022-11-05T03:39:47.555Z,100850.28
2022-11-05T03:42:38.692Z,100854.56
2022-11-05T03:45:30.768Z,100861.00
2022-11-05T03:48:19.332Z,100869.84
2022-11-05T03:51:43.743Z,100882.16
2022-11-05T03:54:31.560Z,100877.06
2022-11-05T03:57:24.054Z,100881.63
2022-11-05T04:00:11.918Z,100880.03
2022-11-05T04:02:59.195Z,100887.78
2022-11-05T04:06:07.072Z,100875.47
2022-11-05T04:09:13.135Z,100896.66
2022-11-05T04:12:19.067Z,100897.44
2022-11-05T04:15:06.947Z,100907.34
2022-11-05T04:17:55.517Z,100903.34
2022-11-05T04:21:01.432Z,100911.66
2022-11-05T04:24:07.165Z,100911.91
2022-11-05T04:26:54.778Z,100913.00
2022-11-05T04:30:00.773Z,100908.97
2022-11-05T04:33:05.350Z,100920.72
2022-11-05T04:35:52.989Z,100913.47
2022-11-05T04:38:40.263Z,100919.63
2022-11-05T04:41:27.635Z,100918.03
2022-11-05T04:44:16.164Z,100917.75
2022-11-05T04:47:03.462Z,100912.91
2022-11-05T04:49:50.847Z,100920.63
2022-11-05T04:52:38.144Z,100920.88
2022-11-05T04:55:26.036Z,100920.63
2022-11-05T04:58:13.308Z,100914.97
2022-11-05T05:01:02.901Z,100925.38
2022-11-05T05:03:51.623Z,100928.31
2022-11-05T05:06:38.914Z,100923.53
2022-11-05T05:09:26.207Z,100928.59
2022-11-05T05:12:13.502Z,100927.78
2022-11-05T05:15:00.809Z,100930.69
2022-11-05T05:17:52.085Z,100929.31
2022-11-05T05:20:57.692Z,100920.22
2022-11-05T05:23:46.918Z,100926.13
2022-11-05T05:26:36.013Z,100930.38
2022-11-05T05:29:23.588Z,100928.00
2022-11-05T05:32:10.937Z,100935.16
2022-11-05T05:34:58.324Z,100934.09
2022-11-05T05:37:45.652Z,100946.91
2022-11-05T05:40:32.968Z,100946.06
2022-11-05T05:43:20.226Z,100942.50
2022-11-05T05:46:12.151Z,100947.34
2022-11-05T05:48:59.674Z,100944.06
2022-11-05T05:51:48.901Z,100949.63
2022-11-05T05:54:42.292Z,100948.88
2022-11-05T05:57:31.416Z,100945.09
2022-11-05T06:00:18.838Z,100949.88
2022-11-05T06:03:06.623Z,100956.81
2022-11-05T06:05:54.051Z,100947.75
2022-11-05T06:08:42.559Z,100960.56
2022-11-05T06:11:29.890Z,100965.41
2022-11-05T06:14:17.334Z,100964.59
2022-11-05T06:17:06.403Z,100967.31
2022-11-05T06:19:53.688Z,100964.84
2022-11-05T06:22:41.048Z,100965.38
2022-11-05T06:25:28.377Z,100966.22
2022-11-05T06:28:15.699Z,100968.56
2022-11-05T06:31:04.120Z,100968.63
2022-11-05T06:33:51.627Z,100975.03
2022-11-05T06:36:40.095Z,100980.31
2022-11-05T06:39:27.722Z,100984.09
2022-11-05T06:42:19.204Z,100985.44
2022-11-05T06:45:07.543Z,100986.72
2022-11-05T06:47:57.032Z,100982.19
2022-11-05T06:50:45.216Z,100990.41
2022-11-05T06:53:32.654Z,100992.25
2022-11-05T06:56:19.918Z,100997.34
2022-11-05T06:59:08.605Z,100997.91
2022-11-05T07:01:56.310Z,101002.53
2022-11-05T07:04:43.800Z,101008.69
2022-11-05T07:07:31.049Z,101007.13
2022-11-05T07:10:19.414Z,101014.66
2022-11-05T07:13:08.437Z,101013.06
2022-11-05T07:15:56.638Z,101015.75
2022-11-05T07:18:43.908Z,101018.50
2022-11-05T07:21:31.185Z,101017.97
2022-11-05T07:24:18.495Z,101015.34
2022-11-05T07:27:06.176Z,101011.38
2022-11-05T07:29:53.419Z,101012.19
2022-11-05T07:32:40.863Z,101017.03
2022-11-05T07:35:28.600Z,101013.34
2022-11-05T07:38:16.971Z,101016.56
2022-11-05T07:41:04.330Z,101024.38
2022-11-05T07:43:51.605Z,101034.88
2022-11-05T07:46:39.149Z,101034.09
2022-11-05T07:49:26.466Z,101041.38
2022-11-05T07:52:13.761Z,101033.38
2022-11-05T07:55:01.167Z,101033.16
2022-11-05T07:57:50.970Z,101040.44
2022-11-05T08:00:38.490Z,101051.97
2022-11-05T08:03:26.154Z,101055.47
2022-11-05T08:06:13.622Z,101063.00
2022-11-05T08:09:00.950Z,101063.00
2022-11-05T08:11:51.139Z,101069.69
2022-11-05T08:14:41.472Z,101068.66
2022-11-05T08:17:28.862Z,101081.28
2022-11-05T08:20:17.115Z,101075.94
2022-11-05T08:23:04.995Z,101079.19
2022-11-05T08:25:52.411Z,101088.31
2022-11-05T08:28:39.878Z,101096.63
2022-11-05T08:31:27.928Z,101105.50
2022-11-05T08:34:15.219Z,101116.50
2022-11-05T08:37:03.050Z,101123.47
2022-11-05T08:39:50.505Z,101143.06
2022-11-05T08:42:37.831Z,101137.44
2022-11-05T08:45:26.242Z,101155.69
2022-11-05T08:48:16.023Z,101144.44
2022-11-05T08:51:03.284Z,101162.94
2022-11-05T08:53:50.702Z,101167.72
2022-11-05T08:56:38.085Z,101169.06
2022-11-05T08:59:25.600Z,101175.50
2022-11-05T09:02:13.117Z,101175.22
2022-11-05T09:05:00.596Z,101190.00
2022-11-05T09:07:48.206Z,101192.91
2022-11-05T09:10:36.241Z,101199.31
2022-11-05T09:13:23.820Z,101208.69
2022-11-05T09:16:23.477Z,101213.50
2022-11-05T09:19:10.853Z,101216.09
2022-11-05T09:21:59.474Z,101232.97
2022-11-05T09:24:46.845Z,101246.09
2022-11-05T09:27:34.152Z,101255.47
2022-11-05T09:30:21.492Z,101258.59
2022-11-05T09:33:09.494Z,101268.22
2022-11-05T09:36:00.001Z,101280.78
2022-11-05T09:38:47.608Z,101291.44
2022-11-05T09:41:39.903Z,101296.22
2022-11-05T09:44:52.681Z,101310.41
2022-11-05T09:47:44.316Z,101320.59
2022-11-05T09:50:40.518Z,101328.28
2022-11-05T09:53:28.310Z,101334.19
2022-11-05T09:56:22.233Z,101344.81
2022-11-05T09:59:23.972Z,101349.56
2022-11-05T10:02:20.834Z,101356.78
2022-11-05T10:05:11.414Z,101359.94
2022-11-05T10:08:03.569Z,101371.00
2022-11-05T10:10:55.546Z,101363.66
2022-11-05T10:13:47.482Z,101371.69
2022-11-05T10:16:39.125Z,101374.28
2022-11-05T10:19:38.987Z,101374.19
2022-11-05T10:22:26.548Z,101381.34
2022-11-05T10:25:19.575Z,101380.38
2022-11-05T10:28:09.743Z,101390.03
2022-11-05T10:31:06.609Z,101396.97
2022-11-05T10:34:00.625Z,101391.94
2022-11-05T10:36:48.474Z,101403.06
2022-11-05T10:39:36.354Z,101403.19
2022-11-05T10:42:47.036Z,101400.72
2022-11-05T10:45:46.809Z,101400.06
2022-11-05T10:48:43.637Z,101405.50
2022-11-05T10:51:32.534Z,101402.22
2022-11-05T10:54:23.277Z,101403.63
2022-11-05T10:57:39.545Z,101397.50
2022-11-05T11:00:28.501Z,101409.13
2022-11-05T11:03:48.066Z,101395.28
2022-11-05T11:06:39.512Z,101408.50
2022-11-05T11:09:28.835Z,101411.44
2022-11-05T11:12:27.531Z,101402.81
2022-11-05T11:15:27.433Z,101405.97
2022-11-05T11:18:35.990Z,101400.66
2022-11-05T11:21:28.715Z,101406.22
2022-11-05T11:24:23.245Z,101408.41
2022-11-05T11:27:18.011Z,101416.06
2022-11-05T11:30:06.714Z,101400.28
2022-11-05T11:33:00.060Z,101409.69
2022-11-05T11:35:47.443Z,101408.38
2022-11-05T11:38:36.459Z,101407.72
2022-11-05T11:41:44.783Z,101412.47
2022-11-05T11:44:39.593Z,101407.72
2022-11-05T11:47:29.049Z,101401.31
2022-11-05T11:50:31.414Z,101396.50
2022-11-05T11:53:21.458Z,101403.50
2022-11-05T11:56:20.347Z,101393.91
2022-11-05T11:59:40.604Z,101403.22
2022-11-05T12:03:07.748Z,101397.38
2022-11-05T12:06:07.939Z,101398.91
2022-11-05T12:09:14.168Z,101406.78
2022-11-05T12:12:15.208Z,101385.91
2022-11-05T12:15:24.456Z,101390.66
2022-11-05T12:19:00.667Z,101398.00
2022-11-05T12:21:52.931Z,101389.88
2022-11-05T12:24:52.720Z,101371.94
2022-11-05T12:27:40.044Z,101368.41
2022-11-05T12:30:39.637Z,101371.94
2022-11-05T12:33:47.195Z,101371.94
2022-11-05T12:36:53.219Z,101369.53
2022-11-05T12:40:27.063Z,101371.28
2022-11-05T12:43:56.916Z,101377.25
2022-11-05T12:47:17.744Z,101362.44
2022-11-05T12:50:28.484Z,101355.25
2022-11-05T12:53:43.464Z,101351.19
2022-11-05T12:56:37.062Z,101355.31
2022-11-05T13:00:06.586Z,101335.13
2022-11-05T13:03:09.253Z,101338.06
2022-11-05T13:06:00.191Z,101351.13
2022-11-05T13:09:04.454Z,101345.38
2022-11-05T13:11:56.542Z,101342.06
2022-11-05T13:15:12.892Z,101335.00
2022-11-05T13:18:05.425Z,101341.47
2022-11-05T13:20:54.483Z,101334.47
2022-11-05T13:23:49.213Z,101308.72
2022-11-05T13:26:45.993Z,101334.63
2022-11-05T13:29:41.357Z,101344.97
2022-11-05T13:32:35.982Z,101340.97
2022-11-05T13:35:31.380Z,101328.66
2022-11-05T13:38:44.499Z,101332.00
2022-11-05T13:41:57.720Z,101339.03
2022-11-05T13:44:53.724Z,101332.97
2022-11-05T13:47:56.012Z,101358.28
2022-11-05T13:51:11.070Z,101361.47
2022-11-05T13:54:21.619Z,101361.28
2022-11-05T13:57:34.599Z,101361.56
2022-11-05T14:00:27.409Z,101362.53
2022-11-05T14:03:19.247Z,101355.22
2022-11-05T14:06:07.826Z,101362.06
2022-11-05T14:09:02.616Z,101378.59
2022-11-05T14:11:56.532Z,101392.88
2022-11-05T14:14:53.275Z,101403.25
2022-11-05T14:18:35.391Z,101406.38
2022-11-05T14:21:32.350Z,101420.13
2022-11-05T14:24:22.640Z,101412.25
2022-11-05T14:27:29.904Z,101417.28
2022-11-05T14:30:45.977Z,101422.03
2022-11-05T14:33:38.922Z,101414.63
2022-11-05T14:36:26.303Z,101407.94
2022-11-05T14:39:13.929Z,101410.00
2022-11-05T14:42:27.591Z,101399.75
2022-11-05T14:45:17.565Z,101403.00
2022-11-05T14:48:23.530Z,101390.94
2022-11-05T14:51:32.188Z,101390.13
2022-11-05T14:54:21.801Z,101404.34
2022-11-05T14:57:14.942Z,101401.28
2022-11-05T15:00:03.254Z,101408.06
2022-11-05T15:03:36.275Z,101420.13
2022-11-05T15:06:28.155Z,101424.94
2022-11-05T15:09:22.957Z,101432.19
2022-11-05T15:12:31.749Z,101438.06
2022-11-05T15:15:32.167Z,101435.97
2022-11-05T15:18:36.733Z,101432.66
2022-11-05T15:21:25.496Z,101438.81
2022-11-05T15:24:15.887Z,101433.91
2022-11-05T15:27:09.382Z,101447.97
2022-11-05T15:29:57.254Z,101438.38
2022-11-05T15:32:44.688Z,101445.50
2022-11-05T15:35:39.351Z,101443.25
2022-11-05T15:38:28.331Z,101439.56
2022-11-05T15:41:20.820Z,101446.75
2022-11-05T15:44:24.069Z,101443.59
2022-11-05T15:47:16.604Z,101440.47
2022-11-05T15:50:14.787Z,101442.50
2022-11-05T15:53:41.641Z,101431.22
2022-11-05T15:56:31.702Z,101429.19
2022-11-05T15:59:24.435Z,101431.47
2022-11-05T16:02:33.942Z,101429.59
2022-11-05T16:05:22.010Z,101428.84
2022-11-05T16:08:17.662Z,101432.13
2022-11-05T16:11:05.330Z,101442.94
2022-11-05T16:13:53.871Z,101439.44
2022-11-05T16:16:41.319Z,101432.78
2022-11-05T16:19:40.109Z,101433.84
2022-11-05T16:22:45.194Z,101428.81
2022-11-05T16:25:38.495Z,101434.72
2022-11-05T16:28:28.694Z,101427.19
2022-11-05T16:31:21.974Z,101428.31
2022-11-05T16:34:25.874Z,101431.00
2022-11-05T16:37:16.355Z,101423.47
2022-11-05T16:40:13.389Z,101422.66
2022-11-05T16:43:15.729Z,101422.91
2022-11-05T16:46:03.104Z,101428.38
2022-11-05T16:48:50.379Z,101427.31
2022-11-05T16:51:38.451Z,101424.88
2022-11-05T16:54:25.777Z,101417.88
2022-11-05T16:57:25.665Z,101423.06
2022-11-05T17:00:18.623Z,101425.25
2022-11-05T17:03:05.997Z,101429.22
2022-11-05T17:05:53.642Z,101432.19
2022-11-05T17:08:41.433Z,101438.94
2022-11-05T17:11:28.799Z,101436.00
2022-11-05T17:14:16.165Z,101442.22
2022-11-05T17:17:04.086Z,101442.47
2022-11-05T17:19:51.431Z,101444.91
2022-11-05T17:22:38.724Z,101436.28
2022-11-05T17:25:26.741Z,101437.63
2022-11-05T17:28:16.864Z,101437.31
2022-11-05T17:31:07.684Z,101433.81
2022-11-05T17:33:58.655Z,101444.03
2022-11-05T17:36:45.979Z,101450.53
2022-11-05T17:39:33.817Z,101450.53
2022-11-05T17:42:21.220Z,101455.88
2022-11-05T17:45:09.711Z,101450.53
2022-11-05T17:47:57.168Z,101449.41
2022-11-05T17:50:47.299Z,101459.94
2022-11-05T17:53:35.794Z,101456.16
2022-11-05T17:56:33.437Z,101451.59
2022-11-05T17:59:21.037Z,101451.09
2022-11-05T18:02:12.300Z,101454.59
2022-11-05T18:04:59.699Z,101450.84
2022-11-05T18:07:47.747Z,101453.78
2022-11-05T18:10:40.562Z,101458.91
2022-11-05T18:13:27.908Z,101457.84
2022-11-05T18:16:15.473Z,101460.53
2022-11-05T18:19:04.430Z,101453.03
2022-11-05T18:21:53.491Z,101445.75
2022-11-05T18:24:40.934Z,101444.69
2022-11-05T18:27:28.244Z,101441.72
2022-11-05T18:30:15.976Z,101439.06
2022-11-05T18:33:03.756Z,101447.13
2022-11-05T18:35:52.297Z,101446.34
2022-11-05T18:38:39.680Z,101452.25
2022-11-05T18:41:27.878Z,101440.41
2022-11-05T18:44:16.733Z,101450.34
2022-11-05T18:47:05.804Z,101452.53
2022-11-05T18:49:53.390Z,101440.50
2022-11-05T18:52:40.634Z,101446.09
2022-11-05T18:55:28.051Z,101447.44
2022-11-05T18:58:15.680Z,101442.66
2022-11-05T19:01:06.576Z,101439.41
2022-11-05T19:03:54.793Z,101444.81
2022-11-05T19:06:42.606Z,101437.81
2022-11-05T19:09:29.931Z,101446.19
2022-11-05T19:12:17.493Z,101437.06
2022-11-05T19:15:05.531Z,101440.00
2022-11-05T19:17:53.160Z,101430.09
2022-11-05T19:20:40.701Z,101428.75
2022-11-05T19:23:28.180Z,101430.59
2022-11-05T19:26:19.473Z,101422.81
2022-11-05T19:29:09.229Z,101417.72
2022-11-05T19:31:56.521Z,101419.06
2022-11-05T19:34:43.822Z,101417.44
2022-11-05T19:37:31.352Z,101420.13
2022-11-05T19:40:19.337Z,101416.94
2022-11-05T19:43:07.166Z,101421.75
2022-11-05T19:45:54.475Z,101422.81
2022-11-05T19:48:42.858Z,101428.19
2022-11-05T19:51:31.728Z,101431.16
2022-11-05T19:54:19.039Z,101427.72
2022-11-05T19:57:06.517Z,101431.47
2022-11-05T19:59:53.847Z,101429.06
2022-11-05T20:02:45.921Z,101427.69
2022-11-05T20:05:34.054Z,101425.00
2022-11-05T20:08:21.354Z,101432.53
2022-11-05T20:11:09.075Z,101433.88
2022-11-05T20:13:56.919Z,101429.06
2022-11-05T20:16:45.968Z,101441.16
2022-11-05T20:19:33.837Z,101437.13
2022-11-05T20:22:22.697Z,101446.53
2022-11-05T20:25:10.916Z,101446.53
2022-11-05T20:27:58.220Z,101448.16
2022-11-05T20:30:45.578Z,101444.91
2022-11-05T20:33:32.879Z,101446.81
2022-11-05T20:36:22.541Z,101447.34
2022-11-05T20:39:12.311Z,101443.84
2022-11-05T20:42:00.666Z,101440.63
2022-11-05T20:44:48.159Z,101440.06
2022-11-05T20:47:35.574Z,101440.59
2022-11-05T20:50:22.870Z,101439.00
2022-11-05T20:53:11.665Z,101455.94
2022-11-05T20:56:02.402Z,101437.38
2022-11-05T20:58:53.583Z,101438.19
2022-11-05T21:01:41.089Z,101440.34
2022-11-05T21:04:28.631Z,101441.41
2022-11-05T21:07:15.998Z,101438.72
2022-11-05T21:10:04.033Z,101440.09
2022-11-05T21:12:51.356Z,101439.81
2022-11-05T21:15:38.651Z,101444.91
2022-11-05T21:18:31.076Z,101448.16
2022-11-05T21:21:20.479Z,101457.28
2022-11-05T21:24:08.105Z,101455.66
2022-11-05T21:26:56.038Z,101462.13
2022-11-05T21:29:43.339Z,101464.81
2022-11-05T21:32:30.654Z,101456.75
2022-11-05T21:35:17.877Z,101457.84
2022-11-05T21:38:05.496Z,101454.88
2022-11-05T21:40:52.775Z,101458.09
2022-11-05T21:43:42.028Z,101452.97
2022-11-05T21:46:29.482Z,101449.75
2022-11-05T21:49:16.808Z,101446.00
2022-11-05T21:52:23.265Z,101456.22
2022-11-05T21:55:30.587Z,101455.94
2022-11-05T21:58:36.463Z,101453.53
2022-11-05T22:01:23.878Z,101452.19
2022-11-05T22:04:11.220Z,101448.66
2022-11-05T22:06:59.151Z,101450.28
2022-11-05T22:09:46.950Z,101453.81
2022-11-05T22:12:34.277Z,101453.81
2022-11-05T22:15:21.830Z,101446.56
2022-11-05T22:18:09.222Z,101436.84
2022-11-05T22:20:56.629Z,101432.28
2022-11-05T22:23:44.628Z,101440.09
2022-11-05T22:26:31.981Z,101428.53
2022-11-05T22:29:19.750Z,101428.78
2022-11-05T22:32:07.405Z,101430.13
2022-11-05T22:34:55.020Z,101436.84
2022-11-05T22:37:42.483Z,101439.53
2022-11-05T22:40:29.793Z,101433.63
2022-11-05T22:43:17.445Z,101435.50
2022-11-05T22:46:10.628Z,101430.66
2022-11-05T22:48:59.908Z,101434.72
2022-11-05T22:51:47.391Z,101436.84
2022-11-05T22:54:39.001Z,101444.91
2022-11-05T22:57:26.799Z,101442.50
2022-11-05T23:00:17.279Z,101434.16
2022-11-05T23:03:04.712Z,101436.03
2022-11-05T23:06:01.408Z,101435.22
2022-11-05T23:09:07.314Z,101437.13
2022-11-05T23:11:54.669Z,101420.19
2022-11-05T23:14:41.934Z,101416.97
2022-11-05T23:17:47.809Z,101417.25
2022-11-05T23:20:53.692Z,101421.31
2022-11-05T23:23:59.226Z,101421.28
2022-11-05T23:26:52.213Z,101411.34
2022-11-05T23:29:39.576Z,101415.66
2022-11-05T23:32:28.495Z,101394.97
2022-11-05T23:35:16.357Z,101399.78
2022-11-05T23:38:22.309Z,101392.53
2022-11-05T23:41:27.900Z,101392.81
2022-11-05T23:44:33.922Z,101392.81
2022-11-05T23:47:39.610Z,101396.31
2022-11-05T23:50:27.369Z,101387.97
2022-11-05T23:53:14.760Z,101391.19
2022-11-05T23:56:11.687Z,101386.63
2022-11-05T23:58:58.960Z,101381.81
